sensor_id;sensor_type;location;lat;lon;timestamp;P1;durP1;ratioP1;P2;durP2;ratioP2
76094;SDS011;64821;13.710;100.604;2023-03-14T00:00:30;42.22;;;29.35;;
76094;SDS011;64821;13.710;100.604;2023-03-14T00:01:33;43.28;;;29.77;;
76094;SDS011;64821;13.710;100.604;2023-03-14T00:02:37;44.17;;;28.88;;
76094;SDS011;64821;13.710;100.604;2023-03-14T00:03:41;44.77;;;29.43;;
76094;SDS011;64821;13.710;100.604;2023-03-14T00:04:45;46.95;;;29.85;;
76094;SDS011;64821;13.710;100.604;2023-03-14T00:05:49;44.45;;;28.65;;
76094;SDS011;64821;13.710;100.604;2023-03-14T00:06:52;42.53;;;28.27;;
76094;SDS011;64821;13.710;100.604;2023-03-14T00:07:56;43.45;;;28.05;;
76094;SDS011;64821;13.710;100.604;2023-03-14T00:08:59;41.03;;;28.80;;
76094;SDS011;64821;13.710;100.604;2023-03-14T00:10:04;42.72;;;28.10;;
76094;SDS011;64821;13.710;100.604;2023-03-14T00:11:09;42.03;;;28.45;;
76094;SDS011;64821;13.710;100.604;2023-03-14T00:12:15;43.60;;;27.00;;
76094;SDS011;64821;13.710;100.604;2023-03-14T00:13:19;42.53;;;27.67;;
76094;SDS011;64821;13.710;100.604;2023-03-14T00:14:23;42.57;;;28.10;;
76094;SDS011;64821;13.710;100.604;2023-03-14T00:15:26;39.67;;;27.17;;
76094;SDS011;64821;13.710;100.604;2023-03-14T00:16:30;41.08;;;27.55;;
76094;SDS011;64821;13.710;100.604;2023-03-14T00:17:34;39.45;;;26.73;;
76094;SDS011;64821;13.710;100.604;2023-03-14T00:18:38;40.58;;;27.55;;
76094;SDS011;64821;13.710;100.604;2023-03-14T00:19:42;38.50;;;27.53;;
76094;SDS011;64821;13.710;100.604;2023-03-14T00:20:46;40.20;;;27.10;;
76094;SDS011;64821;13.710;100.604;2023-03-14T00:21:50;40.28;;;27.63;;
76094;SDS011;64821;13.710;100.604;2023-03-14T00:22:53;43.33;;;28.35;;
76094;SDS011;64821;13.710;100.604;2023-03-14T00:23:57;39.25;;;26.92;;
76094;SDS011;64821;13.710;100.604;2023-03-14T00:25:01;41.10;;;28.53;;
76094;SDS011;64821;13.710;100.604;2023-03-14T00:26:05;41.30;;;27.55;;
76094;SDS011;64821;13.710;100.604;2023-03-14T00:27:10;40.75;;;28.10;;
76094;SDS011;64821;13.710;100.604;2023-03-14T00:28:16;39.13;;;28.02;;
76094;SDS011;64821;13.710;100.604;2023-03-14T00:29:19;38.80;;;27.40;;
76094;SDS011;64821;13.710;100.604;2023-03-14T00:30:23;38.07;;;27.03;;
76094;SDS011;64821;13.710;100.604;2023-03-14T00:31:27;42.80;;;27.52;;
76094;SDS011;64821;13.710;100.604;2023-03-14T00:32:30;41.63;;;27.45;;
76094;SDS011;64821;13.710;100.604;2023-03-14T00:33:34;44.65;;;31.05;;
76094;SDS011;64821;13.710;100.604;2023-03-14T00:34:38;42.63;;;30.02;;
76094;SDS011;64821;13.710;100.604;2023-03-14T00:35:42;42.07;;;28.63;;
76094;SDS011;64821;13.710;100.604;2023-03-14T00:36:45;41.08;;;27.85;;
76094;SDS011;64821;13.710;100.604;2023-03-14T00:37:49;40.25;;;28.95;;
76094;SDS011;64821;13.710;100.604;2023-03-14T00:38:53;42.92;;;28.40;;
76094;SDS011;64821;13.710;100.604;2023-03-14T00:39:57;46.08;;;30.40;;
76094;SDS011;64821;13.710;100.604;2023-03-14T00:41:03;46.03;;;29.40;;
76094;SDS011;64821;13.710;100.604;2023-03-14T00:42:07;44.25;;;28.27;;
76094;SDS011;64821;13.710;100.604;2023-03-14T00:43:11;42.90;;;29.40;;
76094;SDS011;64821;13.710;100.604;2023-03-14T00:44:16;42.13;;;29.30;;
76094;SDS011;64821;13.710;100.604;2023-03-14T00:45:20;44.22;;;29.15;;
76094;SDS011;64821;13.710;100.604;2023-03-14T00:46:23;44.53;;;28.73;;
76094;SDS011;64821;13.710;100.604;2023-03-14T00:47:27;47.03;;;29.52;;
76094;SDS011;64821;13.710;100.604;2023-03-14T00:48:31;43.95;;;29.70;;
76094;SDS011;64821;13.710;100.604;2023-03-14T00:49:35;42.58;;;29.50;;
76094;SDS011;64821;13.710;100.604;2023-03-14T00:50:39;42.53;;;29.35;;
76094;SDS011;64821;13.710;100.604;2023-03-14T00:51:42;46.33;;;29.63;;
76094;SDS011;64821;13.710;100.604;2023-03-14T00:52:46;42.67;;;29.10;;
76094;SDS011;64821;13.710;100.604;2023-03-14T00:53:50;48.05;;;29.73;;
76094;SDS011;64821;13.710;100.604;2023-03-14T00:54:53;40.35;;;28.98;;
76094;SDS011;64821;13.710;100.604;2023-03-14T00:56:01;42.50;;;28.30;;
76094;SDS011;64821;13.710;100.604;2023-03-14T00:57:06;44.17;;;28.97;;
76094;SDS011;64821;13.710;100.604;2023-03-14T00:58:10;48.50;;;32.20;;
76094;SDS011;64821;13.710;100.604;2023-03-14T00:59:19;41.83;;;28.15;;
76094;SDS011;64821;13.710;100.604;2023-03-14T01:00:23;44.30;;;28.45;;
76094;SDS011;64821;13.710;100.604;2023-03-14T01:01:26;44.58;;;29.00;;
76094;SDS011;64821;13.710;100.604;2023-03-14T01:02:30;47.03;;;29.87;;
76094;SDS011;64821;13.710;100.604;2023-03-14T01:03:34;42.63;;;28.88;;
76094;SDS011;64821;13.710;100.604;2023-03-14T01:04:38;41.25;;;29.38;;
76094;SDS011;64821;13.710;100.604;2023-03-14T01:05:41;43.47;;;28.70;;
76094;SDS011;64821;13.710;100.604;2023-03-14T01:06:45;43.83;;;29.08;;
76094;SDS011;64821;13.710;100.604;2023-03-14T01:07:49;43.97;;;29.33;;
76094;SDS011;64821;13.710;100.604;2023-03-14T01:08:53;44.50;;;30.70;;
76094;SDS011;64821;13.710;100.604;2023-03-14T01:09:58;48.22;;;32.88;;
76094;SDS011;64821;13.710;100.604;2023-03-14T01:11:04;45.72;;;31.60;;
76094;SDS011;64821;13.710;100.604;2023-03-14T01:12:09;42.83;;;30.13;;
76094;SDS011;64821;13.710;100.604;2023-03-14T01:13:13;44.07;;;28.30;;
76094;SDS011;64821;13.710;100.604;2023-03-14T01:14:17;48.78;;;29.75;;
76094;SDS011;64821;13.710;100.604;2023-03-14T01:15:22;41.38;;;28.75;;
76094;SDS011;64821;13.710;100.604;2023-03-14T01:16:26;49.33;;;31.23;;
76094;SDS011;64821;13.710;100.604;2023-03-14T01:17:31;41.17;;;27.88;;
76094;SDS011;64821;13.710;100.604;2023-03-14T01:18:35;40.27;;;26.97;;
76094;SDS011;64821;13.710;100.604;2023-03-14T01:19:40;39.22;;;26.30;;
76094;SDS011;64821;13.710;100.604;2023-03-14T01:20:43;40.97;;;26.98;;
76094;SDS011;64821;13.710;100.604;2023-03-14T01:21:47;39.80;;;27.55;;
76094;SDS011;64821;13.710;100.604;2023-03-14T01:22:51;38.58;;;26.35;;
76094;SDS011;64821;13.710;100.604;2023-03-14T01:23:55;38.83;;;26.20;;
76094;SDS011;64821;13.710;100.604;2023-03-14T01:24:59;37.13;;;25.45;;
76094;SDS011;64821;13.710;100.604;2023-03-14T01:26:03;39.83;;;27.10;;
76094;SDS011;64821;13.710;100.604;2023-03-14T01:27:10;41.90;;;28.38;;
76094;SDS011;64821;13.710;100.604;2023-03-14T01:28:14;39.58;;;27.20;;
76094;SDS011;64821;13.710;100.604;2023-03-14T01:29:19;38.60;;;25.10;;
76094;SDS011;64821;13.710;100.604;2023-03-14T01:30:23;38.08;;;25.85;;
76094;SDS011;64821;13.710;100.604;2023-03-14T01:31:26;41.00;;;26.25;;
76094;SDS011;64821;13.710;100.604;2023-03-14T01:32:30;38.13;;;25.50;;
76094;SDS011;64821;13.710;100.604;2023-03-14T01:33:34;38.47;;;25.95;;
76094;SDS011;64821;13.710;100.604;2023-03-14T01:34:38;39.10;;;25.53;;
76094;SDS011;64821;13.710;100.604;2023-03-14T01:35:42;36.22;;;24.40;;
76094;SDS011;64821;13.710;100.604;2023-03-14T01:36:46;36.05;;;25.17;;
76094;SDS011;64821;13.710;100.604;2023-03-14T01:37:49;38.53;;;25.92;;
76094;SDS011;64821;13.710;100.604;2023-03-14T01:38:53;39.33;;;26.17;;
76094;SDS011;64821;13.710;100.604;2023-03-14T01:39:56;43.57;;;28.07;;
76094;SDS011;64821;13.710;100.604;2023-03-14T01:41:00;41.58;;;27.80;;
76094;SDS011;64821;13.710;100.604;2023-03-14T01:42:04;42.10;;;26.92;;
76094;SDS011;64821;13.710;100.604;2023-03-14T01:43:13;37.15;;;25.73;;
76094;SDS011;64821;13.710;100.604;2023-03-14T01:44:20;40.50;;;25.65;;
76094;SDS011;64821;13.710;100.604;2023-03-14T01:47:21;35.25;;;23.77;;
76094;SDS011;64821;13.710;100.604;2023-03-14T01:48:25;30.55;;;21.45;;
76094;SDS011;64821;13.710;100.604;2023-03-14T01:49:33;35.13;;;21.55;;
76094;SDS011;64821;13.710;100.604;2023-03-14T01:50:39;34.90;;;21.27;;
76094;SDS011;64821;13.710;100.604;2023-03-14T01:51:44;31.10;;;20.80;;
76094;SDS011;64821;13.710;100.604;2023-03-14T01:52:53;33.22;;;22.38;;
76094;SDS011;64821;13.710;100.604;2023-03-14T01:54:02;34.35;;;22.73;;
76094;SDS011;64821;13.710;100.604;2023-03-14T01:55:12;32.50;;;22.05;;
76094;SDS011;64821;13.710;100.604;2023-03-14T01:56:18;30.83;;;20.77;;
76094;SDS011;64821;13.710;100.604;2023-03-14T01:57:25;29.00;;;19.10;;
76094;SDS011;64821;13.710;100.604;2023-03-14T01:58:34;29.88;;;19.42;;
76094;SDS011;64821;13.710;100.604;2023-03-14T01:59:46;29.02;;;18.55;;
76094;SDS011;64821;13.710;100.604;2023-03-14T02:00:54;27.65;;;18.70;;
76094;SDS011;64821;13.710;100.604;2023-03-14T02:02:00;28.33;;;18.75;;
76094;SDS011;64821;13.710;100.604;2023-03-14T02:03:05;28.03;;;19.17;;
76094;SDS011;64821;13.710;100.604;2023-03-14T02:04:13;27.77;;;18.15;;
76094;SDS011;64821;13.710;100.604;2023-03-14T02:05:20;30.70;;;19.30;;
76094;SDS011;64821;13.710;100.604;2023-03-14T02:06:29;27.67;;;18.73;;
76094;SDS011;64821;13.710;100.604;2023-03-14T02:07:39;27.58;;;18.05;;
76094;SDS011;64821;13.710;100.604;2023-03-14T02:08:49;31.07;;;18.93;;
76094;SDS011;64821;13.710;100.604;2023-03-14T02:09:53;31.80;;;18.60;;
76094;SDS011;64821;13.710;100.604;2023-03-14T02:10:58;31.58;;;19.58;;
76094;SDS011;64821;13.710;100.604;2023-03-14T02:12:02;30.30;;;19.17;;
76094;SDS011;64821;13.710;100.604;2023-03-14T02:13:07;32.53;;;18.88;;
76094;SDS011;64821;13.710;100.604;2023-03-14T02:14:13;30.73;;;19.70;;
76094;SDS011;64821;13.710;100.604;2023-03-14T02:15:31;33.05;;;19.45;;
76094;SDS011;64821;13.710;100.604;2023-03-14T02:16:35;30.55;;;19.02;;
76094;SDS011;64821;13.710;100.604;2023-03-14T02:17:39;26.52;;;18.00;;
76094;SDS011;64821;13.710;100.604;2023-03-14T02:18:44;27.60;;;17.40;;
76094;SDS011;64821;13.710;100.604;2023-03-14T02:20:03;26.13;;;16.90;;
76094;SDS011;64821;13.710;100.604;2023-03-14T02:21:17;29.85;;;18.25;;
76094;SDS011;64821;13.710;100.604;2023-03-14T02:22:26;27.00;;;17.42;;
76094;SDS011;64821;13.710;100.604;2023-03-14T02:23:31;28.45;;;18.17;;
76094;SDS011;64821;13.710;100.604;2023-03-14T02:24:40;23.95;;;16.30;;
76094;SDS011;64821;13.710;100.604;2023-03-14T02:25:51;24.47;;;17.03;;
76094;SDS011;64821;13.710;100.604;2023-03-14T02:28:23;26.30;;;17.92;;
76094;SDS011;64821;13.710;100.604;2023-03-14T02:29:27;28.30;;;17.55;;
76094;SDS011;64821;13.710;100.604;2023-03-14T02:30:32;26.95;;;16.83;;
76094;SDS011;64821;13.710;100.604;2023-03-14T02:31:36;27.03;;;18.07;;
76094;SDS011;64821;13.710;100.604;2023-03-14T02:32:40;26.80;;;17.58;;
76094;SDS011;64821;13.710;100.604;2023-03-14T02:33:47;28.73;;;18.00;;
76094;SDS011;64821;13.710;100.604;2023-03-14T02:34:55;28.38;;;16.90;;
76094;SDS011;64821;13.710;100.604;2023-03-14T02:36:01;26.50;;;16.45;;
76094;SDS011;64821;13.710;100.604;2023-03-14T02:37:08;26.53;;;16.70;;
76094;SDS011;64821;13.710;100.604;2023-03-14T02:38:15;25.25;;;17.58;;
76094;SDS011;64821;13.710;100.604;2023-03-14T02:39:24;27.15;;;17.10;;
76094;SDS011;64821;13.710;100.604;2023-03-14T02:40:34;23.80;;;16.05;;
76094;SDS011;64821;13.710;100.604;2023-03-14T02:41:38;27.02;;;17.05;;
76094;SDS011;64821;13.710;100.604;2023-03-14T02:42:43;24.10;;;16.50;;
76094;SDS011;64821;13.710;100.604;2023-03-14T02:43:47;26.13;;;17.08;;
76094;SDS011;64821;13.710;100.604;2023-03-14T02:44:52;26.75;;;17.25;;
76094;SDS011;64821;13.710;100.604;2023-03-14T02:45:57;27.50;;;16.17;;
76094;SDS011;64821;13.710;100.604;2023-03-14T02:47:02;23.15;;;16.65;;
76094;SDS011;64821;13.710;100.604;2023-03-14T02:48:07;25.30;;;16.73;;
76094;SDS011;64821;13.710;100.604;2023-03-14T02:49:16;25.98;;;17.35;;
76094;SDS011;64821;13.710;100.604;2023-03-14T02:50:21;25.45;;;16.85;;
76094;SDS011;64821;13.710;100.604;2023-03-14T02:51:28;23.90;;;15.60;;
76094;SDS011;64821;13.710;100.604;2023-03-14T02:52:32;24.58;;;15.95;;
76094;SDS011;64821;13.710;100.604;2023-03-14T02:53:36;24.73;;;16.23;;
76094;SDS011;64821;13.710;100.604;2023-03-14T02:54:40;24.45;;;16.45;;
76094;SDS011;64821;13.710;100.604;2023-03-14T02:55:45;25.08;;;15.98;;
76094;SDS011;64821;13.710;100.604;2023-03-14T02:56:49;25.35;;;16.83;;
76094;SDS011;64821;13.710;100.604;2023-03-14T02:57:57;26.52;;;16.70;;
76094;SDS011;64821;13.710;100.604;2023-03-14T02:59:02;23.00;;;15.40;;
76094;SDS011;64821;13.710;100.604;2023-03-14T03:00:06;22.23;;;16.10;;
76094;SDS011;64821;13.710;100.604;2023-03-14T03:01:11;23.60;;;16.55;;
76094;SDS011;64821;13.710;100.604;2023-03-14T03:02:14;22.02;;;15.10;;
76094;SDS011;64821;13.710;100.604;2023-03-14T03:03:19;24.27;;;15.38;;
76094;SDS011;64821;13.710;100.604;2023-03-14T03:04:23;24.43;;;15.60;;
76094;SDS011;64821;13.710;100.604;2023-03-14T03:05:27;21.63;;;14.98;;
76094;SDS011;64821;13.710;100.604;2023-03-14T03:06:30;26.80;;;16.65;;
76094;SDS011;64821;13.710;100.604;2023-03-14T03:07:34;26.40;;;16.23;;
76094;SDS011;64821;13.710;100.604;2023-03-14T03:08:38;22.15;;;15.48;;
76094;SDS011;64821;13.710;100.604;2023-03-14T03:09:41;24.17;;;15.30;;
76094;SDS011;64821;13.710;100.604;2023-03-14T03:10:45;24.52;;;15.88;;
76094;SDS011;64821;13.710;100.604;2023-03-14T03:11:49;22.95;;;15.25;;
76094;SDS011;64821;13.710;100.604;2023-03-14T03:12:54;24.15;;;15.95;;
76094;SDS011;64821;13.710;100.604;2023-03-14T03:13:58;24.05;;;15.48;;
76094;SDS011;64821;13.710;100.604;2023-03-14T03:15:08;29.70;;;17.03;;
76094;SDS011;64821;13.710;100.604;2023-03-14T03:16:12;25.20;;;16.52;;
76094;SDS011;64821;13.710;100.604;2023-03-14T03:17:16;27.83;;;17.75;;
76094;SDS011;64821;13.710;100.604;2023-03-14T03:18:19;24.95;;;16.88;;
76094;SDS011;64821;13.710;100.604;2023-03-14T03:19:23;25.52;;;16.95;;
76094;SDS011;64821;13.710;100.604;2023-03-14T03:20:27;26.77;;;16.27;;
76094;SDS011;64821;13.710;100.604;2023-03-14T03:21:31;26.00;;;16.33;;
76094;SDS011;64821;13.710;100.604;2023-03-14T03:22:35;27.05;;;17.05;;
76094;SDS011;64821;13.710;100.604;2023-03-14T03:23:39;24.52;;;15.65;;
76094;SDS011;64821;13.710;100.604;2023-03-14T03:24:42;25.75;;;16.88;;
76094;SDS011;64821;13.710;100.604;2023-03-14T03:25:49;24.70;;;16.50;;
76094;SDS011;64821;13.710;100.604;2023-03-14T03:26:53;25.17;;;17.17;;
76094;SDS011;64821;13.710;100.604;2023-03-14T03:27:59;25.13;;;16.75;;
76094;SDS011;64821;13.710;100.604;2023-03-14T03:29:02;27.35;;;16.58;;
76094;SDS011;64821;13.710;100.604;2023-03-14T03:30:07;25.73;;;17.52;;
76094;SDS011;64821;13.710;100.604;2023-03-14T03:31:11;28.07;;;17.50;;
76094;SDS011;64821;13.710;100.604;2023-03-14T03:32:15;23.77;;;16.00;;
76094;SDS011;64821;13.710;100.604;2023-03-14T03:33:19;26.83;;;17.98;;
76094;SDS011;64821;13.710;100.604;2023-03-14T03:34:32;24.05;;;16.30;;
76094;SDS011;64821;13.710;100.604;2023-03-14T03:35:41;25.10;;;16.38;;
76094;SDS011;64821;13.710;100.604;2023-03-14T03:36:46;22.70;;;15.50;;
76094;SDS011;64821;13.710;100.604;2023-03-14T03:37:49;23.35;;;16.30;;
76094;SDS011;64821;13.710;100.604;2023-03-14T03:38:53;27.10;;;17.52;;
76094;SDS011;64821;13.710;100.604;2023-03-14T03:39:57;22.60;;;15.48;;
76094;SDS011;64821;13.710;100.604;2023-03-14T03:41:02;23.33;;;16.60;;
76094;SDS011;64821;13.710;100.604;2023-03-14T03:42:07;24.73;;;16.77;;
76094;SDS011;64821;13.710;100.604;2023-03-14T03:43:12;20.90;;;15.60;;
76094;SDS011;64821;13.710;100.604;2023-03-14T03:44:16;30.55;;;17.13;;
76094;SDS011;64821;13.710;100.604;2023-03-14T03:45:19;26.25;;;17.60;;
76094;SDS011;64821;13.710;100.604;2023-03-14T03:46:23;23.70;;;17.40;;
76094;SDS011;64821;13.710;100.604;2023-03-14T03:47:27;25.23;;;17.20;;
76094;SDS011;64821;13.710;100.604;2023-03-14T03:48:32;24.17;;;16.75;;
76094;SDS011;64821;13.710;100.604;2023-03-14T03:49:36;27.05;;;17.75;;
76094;SDS011;64821;13.710;100.604;2023-03-14T03:50:43;24.60;;;16.65;;
76094;SDS011;64821;13.710;100.604;2023-03-14T03:51:48;24.10;;;16.92;;
76094;SDS011;64821;13.710;100.604;2023-03-14T03:52:51;25.57;;;18.00;;
76094;SDS011;64821;13.710;100.604;2023-03-14T03:53:56;25.67;;;17.88;;
76094;SDS011;64821;13.710;100.604;2023-03-14T03:55:00;22.67;;;16.48;;
76094;SDS011;64821;13.710;100.604;2023-03-14T03:56:04;31.75;;;18.00;;
76094;SDS011;64821;13.710;100.604;2023-03-14T03:57:08;25.30;;;17.10;;
76094;SDS011;64821;13.710;100.604;2023-03-14T03:58:13;23.70;;;17.60;;
76094;SDS011;64821;13.710;100.604;2023-03-14T03:59:17;26.35;;;17.60;;
76094;SDS011;64821;13.710;100.604;2023-03-14T04:00:21;26.55;;;17.48;;
76094;SDS011;64821;13.710;100.604;2023-03-14T04:01:25;24.38;;;15.80;;
76094;SDS011;64821;13.710;100.604;2023-03-14T04:02:29;25.55;;;17.90;;
76094;SDS011;64821;13.710;100.604;2023-03-14T04:03:33;27.33;;;17.03;;
76094;SDS011;64821;13.710;100.604;2023-03-14T04:04:37;23.88;;;16.77;;
76094;SDS011;64821;13.710;100.604;2023-03-14T04:05:41;25.52;;;17.48;;
76094;SDS011;64821;13.710;100.604;2023-03-14T04:06:45;23.77;;;16.63;;
76094;SDS011;64821;13.710;100.604;2023-03-14T04:07:48;23.60;;;17.45;;
76094;SDS011;64821;13.710;100.604;2023-03-14T04:08:53;24.50;;;18.27;;
76094;SDS011;64821;13.710;100.604;2023-03-14T04:09:57;23.05;;;16.83;;
76094;SDS011;64821;13.710;100.604;2023-03-14T04:11:01;26.02;;;17.42;;
76094;SDS011;64821;13.710;100.604;2023-03-14T04:12:05;27.60;;;18.88;;
76094;SDS011;64821;13.710;100.604;2023-03-14T04:13:09;32.25;;;17.88;;
76094;SDS011;64821;13.710;100.604;2023-03-14T04:14:14;23.67;;;17.13;;
76094;SDS011;64821;13.710;100.604;2023-03-14T04:15:18;23.08;;;16.98;;
76094;SDS011;64821;13.710;100.604;2023-03-14T04:16:23;27.65;;;17.58;;
76094;SDS011;64821;13.710;100.604;2023-03-14T04:17:27;26.05;;;18.33;;
76094;SDS011;64821;13.710;100.604;2023-03-14T04:18:31;24.05;;;17.38;;
76094;SDS011;64821;13.710;100.604;2023-03-14T04:19:34;26.33;;;18.10;;
76094;SDS011;64821;13.710;100.604;2023-03-14T04:20:54;22.92;;;17.92;;
76094;SDS011;64821;13.710;100.604;2023-03-14T04:21:59;24.30;;;17.45;;
76094;SDS011;64821;13.710;100.604;2023-03-14T04:23:03;29.60;;;19.40;;
76094;SDS011;64821;13.710;100.604;2023-03-14T04:24:06;25.48;;;17.10;;
76094;SDS011;64821;13.710;100.604;2023-03-14T04:25:11;23.27;;;17.30;;
76094;SDS011;64821;13.710;100.604;2023-03-14T04:26:14;26.83;;;16.95;;
76094;SDS011;64821;13.710;100.604;2023-03-14T04:27:18;26.25;;;18.00;;
76094;SDS011;64821;13.710;100.604;2023-03-14T04:28:22;26.85;;;17.98;;
76094;SDS011;64821;13.710;100.604;2023-03-14T04:29:28;25.95;;;17.92;;
76094;SDS011;64821;13.710;100.604;2023-03-14T04:30:31;26.37;;;18.10;;
76094;SDS011;64821;13.710;100.604;2023-03-14T04:31:35;25.23;;;16.40;;
76094;SDS011;64821;13.710;100.604;2023-03-14T04:32:55;27.65;;;18.80;;
76094;SDS011;64821;13.710;100.604;2023-03-14T04:33:59;27.27;;;17.17;;
76094;SDS011;64821;13.710;100.604;2023-03-14T04:35:03;23.45;;;16.10;;
76094;SDS011;64821;13.710;100.604;2023-03-14T04:36:08;27.13;;;18.13;;
76094;SDS011;64821;13.710;100.604;2023-03-14T04:37:12;25.63;;;17.00;;
76094;SDS011;64821;13.710;100.604;2023-03-14T04:38:16;26.15;;;17.95;;
76094;SDS011;64821;13.710;100.604;2023-03-14T04:39:20;26.92;;;18.40;;
76094;SDS011;64821;13.710;100.604;2023-03-14T04:40:23;25.27;;;18.25;;
76094;SDS011;64821;13.710;100.604;2023-03-14T04:41:27;29.00;;;19.20;;
76094;SDS011;64821;13.710;100.604;2023-03-14T04:42:31;27.40;;;18.10;;
76094;SDS011;64821;13.710;100.604;2023-03-14T04:43:35;29.58;;;18.67;;
76094;SDS011;64821;13.710;100.604;2023-03-14T04:44:40;26.23;;;18.35;;
76094;SDS011;64821;13.710;100.604;2023-03-14T04:45:44;24.95;;;16.38;;
76094;SDS011;64821;13.710;100.604;2023-03-14T04:46:48;21.10;;;16.23;;
76094;SDS011;64821;13.710;100.604;2023-03-14T04:47:51;28.58;;;18.38;;
76094;SDS011;64821;13.710;100.604;2023-03-14T04:48:55;25.50;;;18.08;;
76094;SDS011;64821;13.710;100.604;2023-03-14T04:49:59;28.25;;;18.85;;
76094;SDS011;64821;13.710;100.604;2023-03-14T04:51:03;25.48;;;17.77;;
76094;SDS011;64821;13.710;100.604;2023-03-14T04:52:07;27.10;;;19.03;;
76094;SDS011;64821;13.710;100.604;2023-03-14T04:53:10;28.90;;;19.73;;
76094;SDS011;64821;13.710;100.604;2023-03-14T04:54:14;25.85;;;18.10;;
76094;SDS011;64821;13.710;100.604;2023-03-14T04:55:18;28.35;;;18.73;;
76094;SDS011;64821;13.710;100.604;2023-03-14T04:56:25;32.38;;;20.33;;
76094;SDS011;64821;13.710;100.604;2023-03-14T04:57:28;27.13;;;17.97;;
76094;SDS011;64821;13.710;100.604;2023-03-14T04:58:32;24.75;;;18.17;;
76094;SDS011;64821;13.710;100.604;2023-03-14T04:59:36;27.05;;;18.25;;
76094;SDS011;64821;13.710;100.604;2023-03-14T05:00:41;25.60;;;18.05;;
76094;SDS011;64821;13.710;100.604;2023-03-14T05:01:45;26.33;;;17.95;;
76094;SDS011;64821;13.710;100.604;2023-03-14T05:02:48;28.23;;;18.23;;
76094;SDS011;64821;13.710;100.604;2023-03-14T05:03:52;24.13;;;17.52;;
76094;SDS011;64821;13.710;100.604;2023-03-14T05:04:56;23.55;;;17.05;;
76094;SDS011;64821;13.710;100.604;2023-03-14T05:06:00;26.15;;;17.88;;
76094;SDS011;64821;13.710;100.604;2023-03-14T05:07:03;27.13;;;18.17;;
76094;SDS011;64821;13.710;100.604;2023-03-14T05:08:07;30.47;;;19.07;;
76094;SDS011;64821;13.710;100.604;2023-03-14T05:09:11;25.67;;;18.42;;
76094;SDS011;64821;13.710;100.604;2023-03-14T05:10:15;27.52;;;19.63;;
76094;SDS011;64821;13.710;100.604;2023-03-14T05:11:19;27.75;;;18.40;;
76094;SDS011;64821;13.710;100.604;2023-03-14T05:12:22;26.50;;;18.33;;
76094;SDS011;64821;13.710;100.604;2023-03-14T05:13:26;24.43;;;18.87;;
76094;SDS011;64821;13.710;100.604;2023-03-14T05:14:30;24.60;;;18.65;;
76094;SDS011;64821;13.710;100.604;2023-03-14T05:15:33;24.83;;;18.15;;
76094;SDS011;64821;13.710;100.604;2023-03-14T05:16:39;26.70;;;18.92;;
76094;SDS011;64821;13.710;100.604;2023-03-14T05:17:42;26.10;;;18.27;;
76094;SDS011;64821;13.710;100.604;2023-03-14T05:18:46;28.83;;;19.03;;
76094;SDS011;64821;13.710;100.604;2023-03-14T05:19:50;28.10;;;19.63;;
76094;SDS011;64821;13.710;100.604;2023-03-14T05:20:54;24.40;;;18.63;;
76094;SDS011;64821;13.710;100.604;2023-03-14T05:21:57;24.02;;;18.67;;
76094;SDS011;64821;13.710;100.604;2023-03-14T05:23:01;26.38;;;17.65;;
76094;SDS011;64821;13.710;100.604;2023-03-14T05:24:05;26.33;;;18.73;;
76094;SDS011;64821;13.710;100.604;2023-03-14T05:25:09;26.02;;;18.55;;
76094;SDS011;64821;13.710;100.604;2023-03-14T05:26:13;26.85;;;18.63;;
76094;SDS011;64821;13.710;100.604;2023-03-14T05:27:16;26.08;;;18.75;;
76094;SDS011;64821;13.710;100.604;2023-03-14T05:28:20;26.88;;;19.45;;
76094;SDS011;64821;13.710;100.604;2023-03-14T05:29:24;27.43;;;17.87;;
76094;SDS011;64821;13.710;100.604;2023-03-14T05:30:28;27.38;;;19.65;;
76094;SDS011;64821;13.710;100.604;2023-03-14T05:31:31;26.27;;;18.67;;
76094;SDS011;64821;13.710;100.604;2023-03-14T05:32:37;25.80;;;19.63;;
76094;SDS011;64821;13.710;100.604;2023-03-14T05:33:40;27.70;;;18.70;;
76094;SDS011;64821;13.710;100.604;2023-03-14T05:34:44;26.00;;;18.23;;
76094;SDS011;64821;13.710;100.604;2023-03-14T05:35:48;29.27;;;19.67;;
76094;SDS011;64821;13.710;100.604;2023-03-14T05:36:52;26.45;;;18.92;;
76094;SDS011;64821;13.710;100.604;2023-03-14T05:37:56;26.52;;;18.80;;
76094;SDS011;64821;13.710;100.604;2023-03-14T05:39:02;28.02;;;19.10;;
76094;SDS011;64821;13.710;100.604;2023-03-14T05:40:09;27.77;;;18.87;;
76094;SDS011;64821;13.710;100.604;2023-03-14T05:41:13;27.77;;;19.48;;
76094;SDS011;64821;13.710;100.604;2023-03-14T05:42:19;27.60;;;19.20;;
76094;SDS011;64821;13.710;100.604;2023-03-14T05:43:26;28.05;;;19.30;;
76094;SDS011;64821;13.710;100.604;2023-03-14T05:44:29;25.95;;;19.88;;
76094;SDS011;64821;13.710;100.604;2023-03-14T05:45:33;30.60;;;19.10;;
76094;SDS011;64821;13.710;100.604;2023-03-14T05:46:37;27.50;;;19.83;;
76094;SDS011;64821;13.710;100.604;2023-03-14T05:47:43;27.73;;;19.83;;
76094;SDS011;64821;13.710;100.604;2023-03-14T05:48:46;26.85;;;19.35;;
76094;SDS011;64821;13.710;100.604;2023-03-14T05:49:50;24.50;;;18.67;;
76094;SDS011;64821;13.710;100.604;2023-03-14T05:50:54;27.40;;;18.57;;
76094;SDS011;64821;13.710;100.604;2023-03-14T05:52:08;24.77;;;18.45;;
76094;SDS011;64821;13.710;100.604;2023-03-14T05:53:12;25.70;;;18.92;;
76094;SDS011;64821;13.710;100.604;2023-03-14T05:54:16;26.05;;;18.33;;
76094;SDS011;64821;13.710;100.604;2023-03-14T05:55:22;26.20;;;18.17;;
76094;SDS011;64821;13.710;100.604;2023-03-14T05:56:26;23.60;;;17.93;;
76094;SDS011;64821;13.710;100.604;2023-03-14T05:57:34;25.35;;;18.13;;
76094;SDS011;64821;13.710;100.604;2023-03-14T05:58:38;26.70;;;19.42;;
76094;SDS011;64821;13.710;100.604;2023-03-14T05:59:42;27.45;;;19.65;;
76094;SDS011;64821;13.710;100.604;2023-03-14T06:00:46;26.20;;;18.77;;
76094;SDS011;64821;13.710;100.604;2023-03-14T06:01:50;26.40;;;18.90;;
76094;SDS011;64821;13.710;100.604;2023-03-14T06:03:05;27.05;;;18.90;;
76094;SDS011;64821;13.710;100.604;2023-03-14T06:04:09;24.42;;;18.25;;
76094;SDS011;64821;13.710;100.604;2023-03-14T06:05:13;28.10;;;19.80;;
76094;SDS011;64821;13.710;100.604;2023-03-14T06:06:19;29.23;;;20.23;;
76094;SDS011;64821;13.710;100.604;2023-03-14T06:07:32;27.40;;;19.37;;
76094;SDS011;64821;13.710;100.604;2023-03-14T06:08:36;29.08;;;19.25;;
76094;SDS011;64821;13.710;100.604;2023-03-14T06:09:43;26.33;;;20.33;;
76094;SDS011;64821;13.710;100.604;2023-03-14T06:10:47;28.35;;;19.80;;
76094;SDS011;64821;13.710;100.604;2023-03-14T06:11:51;26.88;;;19.63;;